sensor_id;sensor_type;location;lat;lon;timestamp;P1;durP1;ratioP1;P2;durP2;ratioP2
57055;SDS011;42945;51.718;5.324;2022-12-18T00:00:42;94.03;;;26.13;;
57055;SDS011;42945;51.718;5.324;2022-12-18T00:03:08;101.55;;;28.35;;
57055;SDS011;42945;51.718;5.324;2022-12-18T00:05:34;96.30;;;27.20;;
57055;SDS011;42945;51.718;5.324;2022-12-18T00:08:00;106.88;;;28.23;;
57055;SDS011;42945;51.718;5.324;2022-12-18T00:10:25;92.97;;;27.15;;
57055;SDS011;42945;51.718;5.324;2022-12-18T00:13:01;101.35;;;28.38;;
57055;SDS011;42945;51.718;5.324;2022-12-18T00:15:26;91.88;;;26.50;;
57055;SDS011;42945;51.718;5.324;2022-12-18T00:17:52;98.20;;;28.02;;
57055;SDS011;42945;51.718;5.324;2022-12-18T00:20:17;96.70;;;28.27;;
57055;SDS011;42945;51.718;5.324;2022-12-18T00:22:48;107.55;;;28.05;;
57055;SDS011;42945;51.718;5.324;2022-12-18T00:25:15;95.40;;;26.85;;
57055;SDS011;42945;51.718;5.324;2022-12-18T00:27:41;91.07;;;26.30;;
57055;SDS011;42945;51.718;5.324;2022-12-18T00:30:06;102.63;;;27.90;;
57055;SDS011;42945;51.718;5.324;2022-12-18T00:32:33;95.15;;;27.15;;
57055;SDS011;42945;51.718;5.324;2022-12-18T00:34:59;94.55;;;26.60;;
57055;SDS011;42945;51.718;5.324;2022-12-18T00:37:24;91.43;;;27.45;;
57055;SDS011;42945;51.718;5.324;2022-12-18T00:39:49;97.90;;;28.05;;
57055;SDS011;42945;51.718;5.324;2022-12-18T00:42:19;105.15;;;28.45;;
57055;SDS011;42945;51.718;5.324;2022-12-18T00:45:17;94.45;;;26.08;;
57055;SDS011;42945;51.718;5.324;2022-12-18T00:47:43;93.43;;;26.52;;
57055;SDS011;42945;51.718;5.324;2022-12-18T00:50:08;86.47;;;24.80;;
57055;SDS011;42945;51.718;5.324;2022-12-18T00:52:34;93.18;;;25.88;;
57055;SDS011;42945;51.718;5.324;2022-12-18T00:55:00;86.85;;;26.05;;
57055;SDS011;42945;51.718;5.324;2022-12-18T00:57:26;96.88;;;26.85;;
57055;SDS011;42945;51.718;5.324;2022-12-18T00:59:51;86.25;;;26.02;;
57055;SDS011;42945;51.718;5.324;2022-12-18T01:02:16;103.20;;;27.80;;
57055;SDS011;42945;51.718;5.324;2022-12-18T01:04:42;84.43;;;25.40;;
57055;SDS011;42945;51.718;5.324;2022-12-18T01:07:07;95.63;;;26.65;;
57055;SDS011;42945;51.718;5.324;2022-12-18T01:09:33;90.13;;;24.95;;
57055;SDS011;42945;51.718;5.324;2022-12-18T01:11:59;92.63;;;25.70;;
57055;SDS011;42945;51.718;5.324;2022-12-18T01:14:24;93.93;;;25.90;;
57055;SDS011;42945;51.718;5.324;2022-12-18T01:16:50;98.72;;;24.25;;
57055;SDS011;42945;51.718;5.324;2022-12-18T01:19:15;89.25;;;26.13;;
57055;SDS011;42945;51.718;5.324;2022-12-18T01:21:40;86.50;;;25.17;;
57055;SDS011;42945;51.718;5.324;2022-12-18T01:24:06;87.10;;;24.10;;
57055;SDS011;42945;51.718;5.324;2022-12-18T01:26:31;88.57;;;25.70;;
57055;SDS011;42945;51.718;5.324;2022-12-18T01:28:57;74.60;;;24.17;;
57055;SDS011;42945;51.718;5.324;2022-12-18T01:31:25;73.25;;;23.98;;
57055;SDS011;42945;51.718;5.324;2022-12-18T01:37:14;91.93;;;24.50;;
57055;SDS011;42945;51.718;5.324;2022-12-18T01:39:39;85.68;;;24.58;;
57055;SDS011;42945;51.718;5.324;2022-12-18T01:42:12;79.45;;;24.25;;
57055;SDS011;42945;51.718;5.324;2022-12-18T01:52:40;74.30;;;22.02;;
57055;SDS011;42945;51.718;5.324;2022-12-18T01:55:11;72.60;;;23.65;;
57055;SDS011;42945;51.718;5.324;2022-12-18T01:57:39;77.30;;;23.13;;
57055;SDS011;42945;51.718;5.324;2022-12-18T02:00:09;72.40;;;21.45;;
57055;SDS011;42945;51.718;5.324;2022-12-18T02:02:38;67.47;;;21.85;;
57055;SDS011;42945;51.718;5.324;2022-12-18T02:05:05;70.07;;;22.58;;
57055;SDS011;42945;51.718;5.324;2022-12-18T02:13:12;71.97;;;22.88;;
57055;SDS011;42945;51.718;5.324;2022-12-18T02:18:31;64.47;;;21.10;;
57055;SDS011;42945;51.718;5.324;2022-12-18T02:26:55;62.22;;;20.52;;
57055;SDS011;42945;51.718;5.324;2022-12-18T02:29:25;57.53;;;20.52;;
57055;SDS011;42945;51.718;5.324;2022-12-18T02:31:57;60.80;;;21.45;;
57055;SDS011;42945;51.718;5.324;2022-12-18T02:34:25;71.35;;;21.95;;
57055;SDS011;42945;51.718;5.324;2022-12-18T02:36:54;59.50;;;20.15;;
57055;SDS011;42945;51.718;5.324;2022-12-18T02:39:21;57.10;;;19.60;;
57055;SDS011;42945;51.718;5.324;2022-12-18T02:41:50;63.03;;;19.42;;
57055;SDS011;42945;51.718;5.324;2022-12-18T02:44:15;60.13;;;18.85;;
57055;SDS011;42945;51.718;5.324;2022-12-18T02:46:42;61.50;;;20.77;;
57055;SDS011;42945;51.718;5.324;2022-12-18T02:49:17;59.75;;;20.05;;
57055;SDS011;42945;51.718;5.324;2022-12-18T02:52:07;63.65;;;20.60;;
57055;SDS011;42945;51.718;5.324;2022-12-18T02:57:34;58.10;;;20.08;;
57055;SDS011;42945;51.718;5.324;2022-12-18T03:05:14;65.25;;;20.88;;
57055;SDS011;42945;51.718;5.324;2022-12-18T03:08:20;64.05;;;20.35;;
57055;SDS011;42945;51.718;5.324;2022-12-18T03:10:56;64.45;;;20.88;;
57055;SDS011;42945;51.718;5.324;2022-12-18T03:13:34;65.57;;;21.05;;
57055;SDS011;42945;51.718;5.324;2022-12-18T03:16:05;55.97;;;19.98;;
57055;SDS011;42945;51.718;5.324;2022-12-18T03:18:35;62.92;;;19.92;;
57055;SDS011;42945;51.718;5.324;2022-12-18T03:21:04;60.63;;;20.65;;
57055;SDS011;42945;51.718;5.324;2022-12-18T03:23:33;72.32;;;21.13;;
57055;SDS011;42945;51.718;5.324;2022-12-18T03:26:03;62.63;;;20.48;;
57055;SDS011;42945;51.718;5.324;2022-12-18T03:28:32;64.85;;;21.00;;
57055;SDS011;42945;51.718;5.324;2022-12-18T03:31:03;68.00;;;21.65;;
57055;SDS011;42945;51.718;5.324;2022-12-18T03:36:08;63.08;;;20.17;;
57055;SDS011;42945;51.718;5.324;2022-12-18T03:38:34;59.50;;;20.58;;
57055;SDS011;42945;51.718;5.324;2022-12-18T03:41:06;61.00;;;20.10;;
57055;SDS011;42945;51.718;5.324;2022-12-18T03:44:16;58.45;;;20.08;;
57055;SDS011;42945;51.718;5.324;2022-12-18T03:47:16;53.05;;;17.55;;
57055;SDS011;42945;51.718;5.324;2022-12-18T03:52:21;62.97;;;19.70;;
57055;SDS011;42945;51.718;5.324;2022-12-18T03:54:53;55.05;;;18.35;;
57055;SDS011;42945;51.718;5.324;2022-12-18T03:57:23;54.63;;;19.15;;
57055;SDS011;42945;51.718;5.324;2022-12-18T03:59:54;55.90;;;19.08;;
57055;SDS011;42945;51.718;5.324;2022-12-18T04:02:22;59.47;;;18.33;;
57055;SDS011;42945;51.718;5.324;2022-12-18T04:04:50;55.10;;;19.05;;
57055;SDS011;42945;51.718;5.324;2022-12-18T04:07:18;55.78;;;17.95;;
57055;SDS011;42945;51.718;5.324;2022-12-18T04:09:45;56.45;;;19.08;;
57055;SDS011;42945;51.718;5.324;2022-12-18T04:15:27;44.42;;;17.08;;
57055;SDS011;42945;51.718;5.324;2022-12-18T04:17:53;52.38;;;18.33;;
57055;SDS011;42945;51.718;5.324;2022-12-18T04:20:18;50.78;;;17.45;;
57055;SDS011;42945;51.718;5.324;2022-12-18T04:22:45;52.15;;;18.15;;
57055;SDS011;42945;51.718;5.324;2022-12-18T04:25:10;53.28;;;18.20;;
57055;SDS011;42945;51.718;5.324;2022-12-18T04:27:36;53.17;;;17.85;;
57055;SDS011;42945;51.718;5.324;2022-12-18T04:30:01;43.00;;;16.10;;
57055;SDS011;42945;51.718;5.324;2022-12-18T04:32:27;48.75;;;16.42;;
57055;SDS011;42945;51.718;5.324;2022-12-18T04:34:52;49.25;;;17.10;;
57055;SDS011;42945;51.718;5.324;2022-12-18T04:37:18;51.83;;;17.33;;
57055;SDS011;42945;51.718;5.324;2022-12-18T04:39:43;51.35;;;17.10;;
57055;SDS011;42945;51.718;5.324;2022-12-18T04:42:08;43.30;;;16.60;;
57055;SDS011;42945;51.718;5.324;2022-12-18T04:44:34;44.97;;;17.45;;
57055;SDS011;42945;51.718;5.324;2022-12-18T04:46:59;50.67;;;16.70;;
57055;SDS011;42945;51.718;5.324;2022-12-18T04:49:24;51.72;;;17.40;;
57055;SDS011;42945;51.718;5.324;2022-12-18T04:51:50;44.45;;;16.38;;
57055;SDS011;42945;51.718;5.324;2022-12-18T04:54:16;45.38;;;16.42;;
57055;SDS011;42945;51.718;5.324;2022-12-18T04:56:41;46.67;;;16.95;;
57055;SDS011;42945;51.718;5.324;2022-12-18T04:59:07;41.83;;;15.05;;
57055;SDS011;42945;51.718;5.324;2022-12-18T05:01:32;42.15;;;15.90;;
57055;SDS011;42945;51.718;5.324;2022-12-18T05:03:57;48.53;;;16.42;;
57055;SDS011;42945;51.718;5.324;2022-12-18T05:06:23;42.10;;;15.85;;
57055;SDS011;42945;51.718;5.324;2022-12-18T05:08:48;44.53;;;15.95;;
57055;SDS011;42945;51.718;5.324;2022-12-18T05:11:14;45.58;;;15.35;;
57055;SDS011;42945;51.718;5.324;2022-12-18T05:13:40;40.80;;;14.85;;
57055;SDS011;42945;51.718;5.324;2022-12-18T05:16:07;39.63;;;15.10;;
57055;SDS011;42945;51.718;5.324;2022-12-18T05:18:33;40.08;;;14.65;;
57055;SDS011;42945;51.718;5.324;2022-12-18T05:20:59;45.80;;;15.45;;
57055;SDS011;42945;51.718;5.324;2022-12-18T05:23:24;50.83;;;15.52;;
57055;SDS011;42945;51.718;5.324;2022-12-18T05:25:51;41.35;;;14.82;;
57055;SDS011;42945;51.718;5.324;2022-12-18T05:28:25;42.20;;;15.13;;
57055;SDS011;42945;51.718;5.324;2022-12-18T05:30:52;41.20;;;16.63;;
57055;SDS011;42945;51.718;5.324;2022-12-18T05:33:23;47.58;;;16.75;;
57055;SDS011;42945;51.718;5.324;2022-12-18T05:35:54;43.88;;;15.65;;
57055;SDS011;42945;51.718;5.324;2022-12-18T05:41:06;39.15;;;15.00;;
57055;SDS011;42945;51.718;5.324;2022-12-18T05:43:34;42.42;;;15.70;;
57055;SDS011;42945;51.718;5.324;2022-12-18T05:46:07;40.13;;;16.10;;
57055;SDS011;42945;51.718;5.324;2022-12-18T05:48:34;41.53;;;16.63;;
57055;SDS011;42945;51.718;5.324;2022-12-18T05:51:06;41.90;;;16.05;;
57055;SDS011;42945;51.718;5.324;2022-12-18T05:53:35;42.20;;;16.77;;
57055;SDS011;42945;51.718;5.324;2022-12-18T05:56:02;50.13;;;18.15;;
57055;SDS011;42945;51.718;5.324;2022-12-18T05:58:29;47.70;;;17.70;;
57055;SDS011;42945;51.718;5.324;2022-12-18T06:00:55;47.53;;;17.83;;
57055;SDS011;42945;51.718;5.324;2022-12-18T06:03:20;38.90;;;16.40;;
57055;SDS011;42945;51.718;5.324;2022-12-18T06:05:45;45.65;;;16.48;;
57055;SDS011;42945;51.718;5.324;2022-12-18T06:08:11;47.25;;;15.35;;
57055;SDS011;42945;51.718;5.324;2022-12-18T06:10:37;42.88;;;15.68;;
57055;SDS011;42945;51.718;5.324;2022-12-18T06:13:03;42.25;;;16.00;;
57055;SDS011;42945;51.718;5.324;2022-12-18T06:15:29;40.20;;;14.55;;
57055;SDS011;42945;51.718;5.324;2022-12-18T06:17:54;38.05;;;13.48;;
57055;SDS011;42945;51.718;5.324;2022-12-18T06:20:20;41.63;;;16.40;;
57055;SDS011;42945;51.718;5.324;2022-12-18T06:22:45;37.03;;;14.45;;
57055;SDS011;42945;51.718;5.324;2022-12-18T06:25:11;45.70;;;14.93;;
57055;SDS011;42945;51.718;5.324;2022-12-18T06:27:36;38.95;;;14.73;;
57055;SDS011;42945;51.718;5.324;2022-12-18T06:30:02;39.08;;;14.27;;
57055;SDS011;42945;51.718;5.324;2022-12-18T06:32:29;39.42;;;14.48;;
57055;SDS011;42945;51.718;5.324;2022-12-18T06:34:55;39.53;;;13.90;;
57055;SDS011;42945;51.718;5.324;2022-12-18T06:37:21;38.17;;;14.63;;
57055;SDS011;42945;51.718;5.324;2022-12-18T06:39:49;40.20;;;14.85;;
57055;SDS011;42945;51.718;5.324;2022-12-18T06:42:15;37.17;;;14.30;;
57055;SDS011;42945;51.718;5.324;2022-12-18T06:44:40;37.15;;;13.88;;
57055;SDS011;42945;51.718;5.324;2022-12-18T06:47:05;38.42;;;14.90;;
57055;SDS011;42945;51.718;5.324;2022-12-18T06:49:30;39.72;;;14.07;;
57055;SDS011;42945;51.718;5.324;2022-12-18T06:51:56;35.72;;;15.35;;
57055;SDS011;42945;51.718;5.324;2022-12-18T06:54:21;39.25;;;13.90;;
57055;SDS011;42945;51.718;5.324;2022-12-18T06:56:46;35.28;;;14.63;;
57055;SDS011;42945;51.718;5.324;2022-12-18T06:59:12;40.50;;;14.90;;
57055;SDS011;42945;51.718;5.324;2022-12-18T07:01:38;37.47;;;14.15;;
57055;SDS011;42945;51.718;5.324;2022-12-18T07:04:03;40.72;;;14.50;;
57055;SDS011;42945;51.718;5.324;2022-12-18T07:06:28;40.67;;;15.88;;
57055;SDS011;42945;51.718;5.324;2022-12-18T07:08:55;43.85;;;16.58;;
57055;SDS011;42945;51.718;5.324;2022-12-18T07:11:20;46.63;;;17.50;;
57055;SDS011;42945;51.718;5.324;2022-12-18T07:13:49;46.38;;;17.20;;
57055;SDS011;42945;51.718;5.324;2022-12-18T07:16:16;44.60;;;16.05;;
57055;SDS011;42945;51.718;5.324;2022-12-18T07:18:43;43.85;;;15.20;;
57055;SDS011;42945;51.718;5.324;2022-12-18T07:21:10;49.20;;;15.75;;
57055;SDS011;42945;51.718;5.324;2022-12-18T07:23:37;42.58;;;16.85;;
57055;SDS011;42945;51.718;5.324;2022-12-18T07:26:06;38.13;;;15.73;;
57055;SDS011;42945;51.718;5.324;2022-12-18T07:28:34;41.00;;;15.73;;
57055;SDS011;42945;51.718;5.324;2022-12-18T07:31:04;40.75;;;14.80;;
57055;SDS011;42945;51.718;5.324;2022-12-18T07:33:34;37.47;;;14.20;;
57055;SDS011;42945;51.718;5.324;2022-12-18T07:35:59;41.28;;;15.52;;
57055;SDS011;42945;51.718;5.324;2022-12-18T07:38:28;46.30;;;15.82;;
57055;SDS011;42945;51.718;5.324;2022-12-18T07:40:54;36.95;;;14.90;;
57055;SDS011;42945;51.718;5.324;2022-12-18T07:43:20;37.05;;;15.10;;
57055;SDS011;42945;51.718;5.324;2022-12-18T07:45:45;40.70;;;15.45;;
57055;SDS011;42945;51.718;5.324;2022-12-18T07:48:17;48.90;;;16.38;;
57055;SDS011;42945;51.718;5.324;2022-12-18T07:50:42;38.50;;;14.05;;
57055;SDS011;42945;51.718;5.324;2022-12-18T07:53:08;43.25;;;15.68;;
57055;SDS011;42945;51.718;5.324;2022-12-18T07:55:33;43.78;;;14.75;;
57055;SDS011;42945;51.718;5.324;2022-12-18T07:58:04;39.05;;;15.50;;
57055;SDS011;42945;51.718;5.324;2022-12-18T08:00:30;40.97;;;14.77;;
57055;SDS011;42945;51.718;5.324;2022-12-18T08:02:56;35.03;;;13.98;;
57055;SDS011;42945;51.718;5.324;2022-12-18T08:05:24;37.25;;;14.82;;
57055;SDS011;42945;51.718;5.324;2022-12-18T08:07:51;38.58;;;16.35;;
57055;SDS011;42945;51.718;5.324;2022-12-18T08:10:21;39.95;;;14.63;;
57055;SDS011;42945;51.718;5.324;2022-12-18T08:12:50;39.10;;;15.02;;
57055;SDS011;42945;51.718;5.324;2022-12-18T08:15:19;38.72;;;14.40;;
57055;SDS011;42945;51.718;5.324;2022-12-18T08:17:44;38.67;;;15.27;;
57055;SDS011;42945;51.718;5.324;2022-12-18T08:20:12;40.63;;;15.25;;
57055;SDS011;42945;51.718;5.324;2022-12-18T08:22:41;38.90;;;15.60;;
57055;SDS011;42945;51.718;5.324;2022-12-18T08:25:07;30.02;;;13.48;;
57055;SDS011;42945;51.718;5.324;2022-12-18T08:27:33;38.78;;;14.55;;
57055;SDS011;42945;51.718;5.324;2022-12-18T08:29:59;39.88;;;14.25;;
57055;SDS011;42945;51.718;5.324;2022-12-18T08:32:24;40.50;;;15.05;;
57055;SDS011;42945;51.718;5.324;2022-12-18T08:34:51;43.00;;;15.73;;
57055;SDS011;42945;51.718;5.324;2022-12-18T08:37:17;35.40;;;14.20;;
57055;SDS011;42945;51.718;5.324;2022-12-18T08:39:42;34.80;;;13.98;;
57055;SDS011;42945;51.718;5.324;2022-12-18T08:42:11;36.60;;;14.82;;
57055;SDS011;42945;51.718;5.324;2022-12-18T08:44:55;37.67;;;13.55;;
57055;SDS011;42945;51.718;5.324;2022-12-18T08:47:20;35.03;;;14.20;;
57055;SDS011;42945;51.718;5.324;2022-12-18T08:49:46;35.80;;;14.85;;
57055;SDS011;42945;51.718;5.324;2022-12-18T08:52:11;42.35;;;15.02;;
57055;SDS011;42945;51.718;5.324;2022-12-18T08:54:39;39.30;;;15.63;;
57055;SDS011;42945;51.718;5.324;2022-12-18T08:57:04;38.58;;;15.52;;
57055;SDS011;42945;51.718;5.324;2022-12-18T08:59:30;37.03;;;14.60;;
57055;SDS011;42945;51.718;5.324;2022-12-18T09:01:55;36.47;;;15.10;;
57055;SDS011;42945;51.718;5.324;2022-12-18T09:04:21;36.00;;;13.82;;
57055;SDS011;42945;51.718;5.324;2022-12-18T09:06:46;35.42;;;14.98;;
57055;SDS011;42945;51.718;5.324;2022-12-18T09:09:12;34.75;;;14.52;;
57055;SDS011;42945;51.718;5.324;2022-12-18T09:11:38;33.80;;;14.98;;
57055;SDS011;42945;51.718;5.324;2022-12-18T09:14:03;37.97;;;13.60;;
57055;SDS011;42945;51.718;5.324;2022-12-18T09:16:29;35.10;;;13.05;;
57055;SDS011;42945;51.718;5.324;2022-12-18T09:18:56;35.20;;;13.25;;
57055;SDS011;42945;51.718;5.324;2022-12-18T09:21:24;37.75;;;13.73;;
57055;SDS011;42945;51.718;5.324;2022-12-18T09:23:51;32.33;;;14.02;;
57055;SDS011;42945;51.718;5.324;2022-12-18T09:26:19;35.95;;;15.23;;
57055;SDS011;42945;51.718;5.324;2022-12-18T09:28:46;34.40;;;14.32;;
57055;SDS011;42945;51.718;5.324;2022-12-18T09:31:14;35.50;;;14.05;;
57055;SDS011;42945;51.718;5.324;2022-12-18T09:33:40;37.15;;;14.82;;
57055;SDS011;42945;51.718;5.324;2022-12-18T09:36:08;35.65;;;14.38;;
57055;SDS011;42945;51.718;5.324;2022-12-18T09:38:36;34.97;;;15.07;;
57055;SDS011;42945;51.718;5.324;2022-12-18T09:43:51;37.65;;;14.23;;
57055;SDS011;42945;51.718;5.324;2022-12-18T09:46:26;32.20;;;13.38;;
57055;SDS011;42945;51.718;5.324;2022-12-18T09:48:54;34.17;;;14.55;;
57055;SDS011;42945;51.718;5.324;2022-12-18T09:51:26;34.10;;;14.25;;
57055;SDS011;42945;51.718;5.324;2022-12-18T09:54:02;36.95;;;14.23;;
57055;SDS011;42945;51.718;5.324;2022-12-18T09:56:31;33.80;;;14.40;;
57055;SDS011;42945;51.718;5.324;2022-12-18T10:02:17;32.75;;;14.27;;
57055;SDS011;42945;51.718;5.324;2022-12-18T10:05:10;35.47;;;13.80;;
57055;SDS011;42945;51.718;5.324;2022-12-18T10:13:33;30.40;;;13.45;;
57055;SDS011;42945;51.718;5.324;2022-12-18T10:16:22;31.58;;;13.73;;
57055;SDS011;42945;51.718;5.324;2022-12-18T10:22:02;30.98;;;12.63;;
57055;SDS011;42945;51.718;5.324;2022-12-18T10:24:34;32.63;;;14.27;;
57055;SDS011;42945;51.718;5.324;2022-12-18T10:27:09;30.85;;;13.48;;
57055;SDS011;42945;51.718;5.324;2022-12-18T10:29:41;31.50;;;14.35;;
57055;SDS011;42945;51.718;5.324;2022-12-18T10:32:15;33.95;;;13.93;;
57055;SDS011;42945;51.718;5.324;2022-12-18T10:34:53;31.10;;;13.43;;
57055;SDS011;42945;51.718;5.324;2022-12-18T10:37:26;38.42;;;14.15;;
57055;SDS011;42945;51.718;5.324;2022-12-18T10:40:14;31.52;;;13.90;;
57055;SDS011;42945;51.718;5.324;2022-12-18T10:42:41;32.92;;;13.20;;
57055;SDS011;42945;51.718;5.324;2022-12-18T10:45:27;34.40;;;14.73;;
57055;SDS011;42945;51.718;5.324;2022-12-18T10:47:52;30.73;;;13.88;;
57055;SDS011;42945;51.718;5.324;2022-12-18T10:50:19;30.92;;;13.88;;
57055;SDS011;42945;51.718;5.324;2022-12-18T10:53:00;31.70;;;14.77;;
57055;SDS011;42945;51.718;5.324;2022-12-18T10:55:31;31.63;;;13.15;;
57055;SDS011;42945;51.718;5.324;2022-12-18T11:01:33;30.98;;;13.77;;
57055;SDS011;42945;51.718;5.324;2022-12-18T11:03:41;33.65;;;14.65;;
57055;SDS011;42945;51.718;5.324;2022-12-18T11:06:14;32.55;;;14.00;;
57055;SDS011;42945;51.718;5.324;2022-12-18T11:08:43;29.38;;;14.32;;
57055;SDS011;42945;51.718;5.324;2022-12-18T11:11:25;32.15;;;14.52;;
57055;SDS011;42945;51.718;5.324;2022-12-18T11:16:44;31.70;;;14.05;;
57055;SDS011;42945;51.718;5.324;2022-12-18T11:21:57;30.95;;;13.90;;
57055;SDS011;42945;51.718;5.324;2022-12-18T11:24:30;30.42;;;14.45;;
57055;SDS011;42945;51.718;5.324;2022-12-18T11:27:03;30.75;;;13.93;;
57055;SDS011;42945;51.718;5.324;2022-12-18T11:29:38;33.30;;;14.27;;
57055;SDS011;42945;51.718;5.324;2022-12-18T11:32:47;32.88;;;14.05;;
57055;SDS011;42945;51.718;5.324;2022-12-18T11:37:52;32.75;;;13.80;;
57055;SDS011;42945;51.718;5.324;2022-12-18T11:40:26;32.70;;;15.13;;
57055;SDS011;42945;51.718;5.324;2022-12-18T11:42:59;32.30;;;14.57;;
57055;SDS011;42945;51.718;5.324;2022-12-18T11:45:35;35.30;;;14.13;;
57055;SDS011;42945;51.718;5.324;2022-12-18T11:48:52;35.00;;;14.55;;
57055;SDS011;42945;51.718;5.324;2022-12-18T11:51:10;33.20;;;13.90;;
57055;SDS011;42945;51.718;5.324;2022-12-18T11:53:44;32.95;;;14.18;;
57055;SDS011;42945;51.718;5.324;2022-12-18T11:56:32;31.23;;;13.32;;
57055;SDS011;42945;51.718;5.324;2022-12-18T11:59:05;28.85;;;13.02;;
57055;SDS011;42945;51.718;5.324;2022-12-18T12:01:51;30.08;;;13.45;;
57055;SDS011;42945;51.718;5.324;2022-12-18T12:18:07;27.08;;;12.98;;
57055;SDS011;42945;51.718;5.324;2022-12-18T12:20:49;30.83;;;13.90;;
57055;SDS011;42945;51.718;5.324;2022-12-18T12:26:14;31.52;;;13.73;;
57055;SDS011;42945;51.718;5.324;2022-12-18T12:28:47;29.30;;;13.98;;
57055;SDS011;42945;51.718;5.324;2022-12-18T12:39:51;31.98;;;14.50;;
57055;SDS011;42945;51.718;5.324;2022-12-18T12:42:31;32.55;;;14.38;;
57055;SDS011;42945;51.718;5.324;2022-12-18T12:45:23;32.70;;;15.00;;
57055;SDS011;42945;51.718;5.324;2022-12-18T12:47:55;37.78;;;15.57;;
57055;SDS011;42945;51.718;5.324;2022-12-18T12:50:23;32.05;;;14.85;;
57055;SDS011;42945;51.718;5.324;2022-12-18T12:52:51;28.05;;;14.05;;
57055;SDS011;42945;51.718;5.324;2022-12-18T12:55:22;33.58;;;14.85;;
57055;SDS011;42945;51.718;5.324;2022-12-18T13:00:21;32.43;;;14.67;;
57055;SDS011;42945;51.718;5.324;2022-12-18T13:08:05;32.10;;;14.15;;
57055;SDS011;42945;51.718;5.324;2022-12-18T13:10:34;33.03;;;14.95;;
57055;SDS011;42945;51.718;5.324;2022-12-18T13:13:07;32.67;;;14.48;;
57055;SDS011;42945;51.718;5.324;2022-12-18T13:15:42;32.03;;;14.15;;
57055;SDS011;42945;51.718;5.324;2022-12-18T13:23:01;32.67;;;14.02;;
57055;SDS011;42945;51.718;5.324;2022-12-18T13:25:54;31.83;;;15.20;;
57055;SDS011;42945;51.718;5.324;2022-12-18T13:30:59;30.75;;;14.02;;
57055;SDS011;42945;51.718;5.324;2022-12-18T13:36:00;34.50;;;15.82;;
57055;SDS011;42945;51.718;5.324;2022-12-18T13:40:56;44.67;;;16.00;;
57055;SDS011;42945;51.718;5.324;2022-12-18T13:45:59;33.58;;;15.55;;
57055;SDS011;42945;51.718;5.324;2022-12-18T13:48:27;35.80;;;15.43;;
57055;SDS011;42945;51.718;5.324;2022-12-18T13:50:58;34.75;;;15.45;;
57055;SDS011;42945;51.718;5.324;2022-12-18T13:53:32;31.20;;;14.23;;
57055;SDS011;42945;51.718;5.324;2022-12-18T13:56:03;34.30;;;15.07;;
57055;SDS011;42945;51.718;5.324;2022-12-18T13:58:30;34.53;;;14.90;;
57055;SDS011;42945;51.718;5.324;2022-12-18T14:00:55;34.03;;;15.35;;
57055;SDS011;42945;51.718;5.324;2022-12-18T14:03:25;34.95;;;16.77;;
57055;SDS011;42945;51.718;5.324;2022-12-18T14:05:52;43.38;;;19.15;;
57055;SDS011;42945;51.718;5.324;2022-12-18T14:08:20;52.25;;;20.98;;
57055;SDS011;42945;51.718;5.324;2022-12-18T14:10:47;47.08;;;19.40;;
57055;SDS011;42945;51.718;5.324;2022-12-18T14:13:27;43.45;;;18.73;;
57055;SDS011;42945;51.718;5.324;2022-12-18T14:15:55;42.20;;;18.08;;
57055;SDS011;42945;51.718;5.324;2022-12-18T14:19:08;38.10;;;16.77;;
57055;SDS011;42945;51.718;5.324;2022-12-18T14:21:23;42.00;;;19.80;;
57055;SDS011;42945;51.718;5.324;2022-12-18T14:26:39;36.75;;;16.50;;
57055;SDS011;42945;51.718;5.324;2022-12-18T14:29:18;42.63;;;16.88;;
57055;SDS011;42945;51.718;5.324;2022-12-18T14:31:46;44.35;;;18.02;;
57055;SDS011;42945;51.718;5.324;2022-12-18T14:36:54;35.05;;;14.77;;
57055;SDS011;42945;51.718;5.324;2022-12-18T14:39:21;32.20;;;15.48;;
57055;SDS011;42945;51.718;5.324;2022-12-18T14:41:48;32.60;;;15.23;;
57055;SDS011;42945;51.718;5.324;2022-12-18T14:44:15;35.88;;;16.40;;
57055;SDS011;42945;51.718;5.324;2022-12-18T14:46:44;38.90;;;17.38;;
57055;SDS011;42945;51.718;5.324;2022-12-18T14:49:18;45.42;;;16.70;;
57055;SDS011;42945;51.718;5.324;2022-12-18T14:51:56;34.72;;;15.60;;
57055;SDS011;42945;51.718;5.324;2022-12-18T14:54:24;36.35;;;15.85;;
57055;SDS011;42945;51.718;5.324;2022-12-18T14:56:51;32.58;;;15.73;;
57055;SDS011;42945;51.718;5.324;2022-12-18T14:59:24;35.42;;;15.82;;
57055;SDS011;42945;51.718;5.324;2022-12-18T15:04:36;33.78;;;15.40;;
57055;SDS011;42945;51.718;5.324;2022-12-18T15:07:14;36.25;;;16.08;;
57055;SDS011;42945;51.718;5.324;2022-12-18T15:09:43;38.17;;;15.43;;
57055;SDS011;42945;51.718;5.324;2022-12-18T15:12:28;34.13;;;15.52;;
57055;SDS011;42945;51.718;5.324;2022-12-18T15:14:59;35.00;;;16.38;;
57055;SDS011;42945;51.718;5.324;2022-12-18T15:17:24;37.45;;;15.88;;
57055;SDS011;42945;51.718;5.324;2022-12-18T15:19:51;33.92;;;15.52;;
57055;SDS011;42945;51.718;5.324;2022-12-18T15:24:53;39.83;;;15.02;;
57055;SDS011;42945;51.718;5.324;2022-12-18T15:27:24;41.17;;;18.55;;
57055;SDS011;42945;51.718;5.324;2022-12-18T15:32:34;38.30;;;15.75;;
57055;SDS011;42945;51.718;5.324;2022-12-18T15:37:39;39.15;;;17.20;;
57055;SDS011;42945;51.718;5.324;2022-12-18T15:40:04;43.17;;;18.13;;
57055;SDS011;42945;51.718;5.324;2022-12-18T15:42:30;39.13;;;18.45;;
57055;SDS011;42945;51.718;5.324;2022-12-18T15:45:15;36.88;;;16.27;;
57055;SDS011;42945;51.718;5.324;2022-12-18T15:47:40;46.78;;;22.48;;
57055;SDS011;42945;51.718;5.324;2022-12-18T15:50:09;43.72;;;21.55;;
57055;SDS011;42945;51.718;5.324;2022-12-18T15:52:42;41.15;;;19.75;;
57055;SDS011;42945;51.718;5.324;2022-12-18T15:55:12;40.60;;;18.27;;
57055;SDS011;42945;51.718;5.324;2022-12-18T15:57:59;43.88;;;16.80;;
57055;SDS011;42945;51.718;5.324;2022-12-18T16:00:24;36.72;;;16.25;;
57055;SDS011;42945;51.718;5.324;2022-12-18T16:02:50;39.30;;;19.38;;
57055;SDS011;42945;51.718;5.324;2022-12-18T16:05:17;41.38;;;18.77;;
57055;SDS011;42945;51.718;5.324;2022-12-18T16:07:45;40.35;;;17.90;;
57055;SDS011;42945;51.718;5.324;2022-12-18T16:10:11;43.47;;;16.75;;
57055;SDS011;42945;51.718;5.324;2022-12-18T16:12:37;36.00;;;15.00;;
57055;SDS011;42945;51.718;5.324;2022-12-18T16:15:04;53.88;;;24.83;;
57055;SDS011;42945;51.718;5.324;2022-12-18T16:17:30;43.88;;;16.75;;
57055;SDS011;42945;51.718;5.324;2022-12-18T16:19:55;35.95;;;17.02;;
57055;SDS011;42945;51.718;5.324;2022-12-18T16:22:22;38.95;;;17.05;;
57055;SDS011;42945;51.718;5.324;2022-12-18T16:24:53;36.53;;;16.45;;
57055;SDS011;42945;51.718;5.324;2022-12-18T16:27:19;40.58;;;17.00;;
57055;SDS011;42945;51.718;5.324;2022-12-18T16:29:46;43.28;;;18.35;;
57055;SDS011;42945;51.718;5.324;2022-12-18T16:32:16;38.50;;;17.23;;
57055;SDS011;42945;51.718;5.324;2022-12-18T16:34:43;45.83;;;21.90;;
57055;SDS011;42945;51.718;5.324;2022-12-18T16:37:09;48.38;;;21.85;;
57055;SDS011;42945;51.718;5.324;2022-12-18T16:39:36;60.75;;;27.15;;
57055;SDS011;42945;51.718;5.324;2022-12-18T16:42:03;39.65;;;17.38;;
57055;SDS011;42945;51.718;5.324;2022-12-18T16:44:30;39.22;;;18.13;;
57055;SDS011;42945;51.718;5.324;2022-12-18T16:46:56;40.58;;;18.58;;
57055;SDS011;42945;51.718;5.324;2022-12-18T16:49:26;39.38;;;18.05;;